createdAt,value
2023-03-03T00:02:11.013Z,14.20
2023-03-03T00:05:53.704Z,16.52
2023-03-03T00:09:35.608Z,11.13
2023-03-03T00:13:21.592Z,10.77
2023-03-03T00:17:34.422Z,9.98
2023-03-03T00:21:40.408Z,10.35
2023-03-03T00:25:34.190Z,11.05
2023-03-03T00:29:38.146Z,11.13
2023-03-03T00:33:43.263Z,10.75
2023-03-03T00:37:35.944Z,15.80
2023-03-03T00:41:25.233Z,10.50
2023-03-03T00:45:28.442Z,12.30
2023-03-03T00:49:25.948Z,9.75
2023-03-03T00:53:13.702Z,11.20
2023-03-03T00:56:55.612Z,10.55
2023-03-03T01:00:38.606Z,10.00
2023-03-03T01:04:22.486Z,9.23
2023-03-03T01:08:04.614Z,11.60
2023-03-03T01:11:52.710Z,10.45
2023-03-03T01:15:34.791Z,11.40
2023-03-03T01:19:17.749Z,11.67
2023-03-03T01:22:59.858Z,9.60
2023-03-03T01:26:41.812Z,10.43
2023-03-03T01:30:24.205Z,11.93
2023-03-03T01:34:07.350Z,12.50
2023-03-03T01:37:49.313Z,11.57
2023-03-03T01:41:35.162Z,11.70
2023-03-03T01:45:24.519Z,11.57
2023-03-03T01:49:29.171Z,12.05
2023-03-03T01:53:25.863Z,14.25
2023-03-03T01:57:16.423Z,8.93
2023-03-03T02:01:03.839Z,13.45
2023-03-03T02:04:46.321Z,9.80
2023-03-03T02:08:39.178Z,12.77
2023-03-03T02:12:26.150Z,9.95
2023-03-03T02:16:08.608Z,10.65
2023-03-03T02:20:22.176Z,9.70
2023-03-03T02:24:13.616Z,12.13
2023-03-03T02:27:57.235Z,8.60
2023-03-03T02:31:39.224Z,8.68
2023-03-03T02:35:32.158Z,10.83
2023-03-03T02:39:26.627Z,7.20
2023-03-03T02:43:10.402Z,10.05
2023-03-03T02:46:53.891Z,11.47
2023-03-03T02:50:35.850Z,9.10
2023-03-03T02:54:19.759Z,10.07
2023-03-03T02:58:01.663Z,11.50
2023-03-03T03:01:44.732Z,9.33
2023-03-03T03:05:26.673Z,9.48
2023-03-03T03:09:10.241Z,12.10
2023-03-03T03:12:52.951Z,10.73
2023-03-03T03:16:35.206Z,10.40
2023-03-03T03:20:17.525Z,9.30
2023-03-03T03:23:59.519Z,11.13
2023-03-03T03:27:41.854Z,9.32
2023-03-03T03:31:23.798Z,8.70
2023-03-03T03:35:06.211Z,9.25
2023-03-03T03:38:48.129Z,10.70
2023-03-03T03:42:30.109Z,9.40
2023-03-03T03:46:12.206Z,8.77
2023-03-03T03:49:54.204Z,12.63
2023-03-03T03:53:36.210Z,12.32
2023-03-03T03:57:18.212Z,10.27
2023-03-03T04:01:08.159Z,12.23
2023-03-03T04:04:50.119Z,9.68
2023-03-03T04:08:32.002Z,10.65
2023-03-03T04:12:13.941Z,11.57
2023-03-03T04:15:55.935Z,11.03
2023-03-03T04:19:37.936Z,12.07
2023-03-03T04:23:19.832Z,10.77
2023-03-03T04:27:02.059Z,9.87
2023-03-03T04:30:44.668Z,10.88
2023-03-03T04:34:26.875Z,10.60
2023-03-03T04:38:08.857Z,13.13
2023-03-03T04:41:50.881Z,9.13
2023-03-03T04:45:32.825Z,9.75
2023-03-03T04:49:14.796Z,9.38
2023-03-03T04:52:56.727Z,8.80
2023-03-03T04:56:38.702Z,7.63
2023-03-03T05:00:20.850Z,10.98
2023-03-03T05:04:03.042Z,8.33
2023-03-03T05:07:45.020Z,8.90
2023-03-03T05:11:27.034Z,9.57
2023-03-03T05:15:09.210Z,9.73
2023-03-03T05:18:51.340Z,10.00
2023-03-03T05:22:33.243Z,9.45
2023-03-03T05:26:15.329Z,9.15
2023-03-03T05:29:57.693Z,11.83
2023-03-03T05:33:39.687Z,9.45
2023-03-03T05:37:21.699Z,11.07
2023-03-03T05:41:04.185Z,10.87
2023-03-03T05:44:46.103Z,9.43
2023-03-03T05:48:28.598Z,9.00
2023-03-03T05:52:10.749Z,9.40
2023-03-03T05:55:52.737Z,9.18
2023-03-03T05:59:34.743Z,9.35
2023-03-03T06:03:17.207Z,9.18
2023-03-03T06:06:59.183Z,11.17
2023-03-03T06:10:43.196Z,12.38
2023-03-03T06:14:27.169Z,10.30
2023-03-03T06:18:09.758Z,11.27
2023-03-03T06:21:51.705Z,9.68
2023-03-03T06:25:35.833Z,11.07
2023-03-03T06:29:18.202Z,12.60
2023-03-03T06:33:00.166Z,10.95
2023-03-03T06:36:42.128Z,10.75
2023-03-03T06:40:24.100Z,12.60
2023-03-03T06:44:06.871Z,9.90
2023-03-03T06:47:49.250Z,11.38
2023-03-03T06:51:38.498Z,10.93
2023-03-03T06:55:23.944Z,9.87
2023-03-03T06:59:18.155Z,11.02
2023-03-03T07:03:02.907Z,8.13
2023-03-03T07:06:44.939Z,8.27
2023-03-03T07:10:28.451Z,8.48
2023-03-03T07:14:17.014Z,8.65
2023-03-03T07:17:59.867Z,9.25
2023-03-03T07:21:42.032Z,11.20
2023-03-03T07:25:32.269Z,8.95
2023-03-03T07:29:28.487Z,8.32
2023-03-03T07:33:25.079Z,13.13
2023-03-03T07:37:41.472Z,9.23
2023-03-03T07:41:24.165Z,9.10
2023-03-03T07:45:25.451Z,11.37
2023-03-03T07:49:22.906Z,8.63
2023-03-03T07:53:29.643Z,7.68
2023-03-03T07:57:17.712Z,7.88
2023-03-03T08:01:40.588Z,7.93
2023-03-03T08:05:41.865Z,7.38
2023-03-03T08:09:46.276Z,6.80
2023-03-03T08:13:34.462Z,6.50
2023-03-03T08:17:34.124Z,6.85
2023-03-03T08:21:21.422Z,8.68
2023-03-03T08:25:03.410Z,7.20
2023-03-03T08:28:45.818Z,7.18
2023-03-03T08:32:27.888Z,7.20
2023-03-03T08:36:10.461Z,9.13
2023-03-03T08:39:52.393Z,7.87
2023-03-03T08:43:35.177Z,7.93
2023-03-03T08:47:17.138Z,8.23
2023-03-03T08:50:59.434Z,6.93
2023-03-03T08:54:44.383Z,7.38
2023-03-03T08:58:35.010Z,9.25
2023-03-03T09:02:17.995Z,8.60
2023-03-03T09:06:00.017Z,7.22
2023-03-03T09:09:41.946Z,9.25
2023-03-03T09:13:23.954Z,8.23
2023-03-03T09:17:23.964Z,9.70
2023-03-03T09:21:35.270Z,7.82
2023-03-03T09:25:37.698Z,7.63
2023-03-03T09:29:27.686Z,7.30
2023-03-03T09:33:37.769Z,7.40
2023-03-03T09:37:40.514Z,8.18
2023-03-03T09:41:58.200Z,7.57
2023-03-03T09:46:04.814Z,7.28
2023-03-03T09:50:24.929Z,7.45
2023-03-03T09:54:22.143Z,6.97
2023-03-03T09:58:12.828Z,8.03
2023-03-03T10:02:17.539Z,6.90
2023-03-03T10:06:33.766Z,7.30
2023-03-03T10:10:29.570Z,5.87
2023-03-03T10:14:20.577Z,6.72
2023-03-03T10:18:12.949Z,5.97
2023-03-03T10:22:12.554Z,6.70
2023-03-03T10:26:29.028Z,6.60
2023-03-03T10:30:33.248Z,5.40
2023-03-03T10:34:23.764Z,6.80
2023-03-03T10:38:29.001Z,4.83
2023-03-03T10:42:15.547Z,5.43
2023-03-03T10:46:33.907Z,5.90
2023-03-03T10:50:31.952Z,8.30
2023-03-03T10:54:43.605Z,7.25
2023-03-03T10:58:39.590Z,7.90
2023-03-03T11:02:42.772Z,6.43
2023-03-03T11:06:30.648Z,4.90
2023-03-03T11:10:30.372Z,5.75
2023-03-03T11:14:26.990Z,5.80
2023-03-03T11:18:25.812Z,4.93
2023-03-03T11:22:16.816Z,5.93
2023-03-03T11:26:20.299Z,5.78
2023-03-03T11:30:34.544Z,6.40
2023-03-03T11:34:38.452Z,6.28
2023-03-03T11:38:41.634Z,5.68
2023-03-03T11:42:28.714Z,12.53
2023-03-03T11:46:17.184Z,5.50
2023-03-03T11:50:16.183Z,6.35
2023-03-03T11:54:05.744Z,6.60
2023-03-03T11:58:12.590Z,6.93
2023-03-03T12:02:10.244Z,7.13
2023-03-03T12:06:06.340Z,7.28
2023-03-03T12:10:19.589Z,7.67
2023-03-03T12:19:26.644Z,6.00
2023-03-03T12:27:45.996Z,7.38
2023-03-03T12:44:39.422Z,11.27
2023-03-03T12:53:31.000Z,6.73
2023-03-03T13:02:37.005Z,7.82
2023-03-03T13:07:17.724Z,7.53
2023-03-03T13:11:45.693Z,7.15
2023-03-03T13:20:34.486Z,5.70
2023-03-03T13:25:06.491Z,6.90
2023-03-03T13:37:27.153Z,4.87
2023-03-03T13:46:06.154Z,6.97
2023-03-03T13:50:38.820Z,8.77
2023-03-03T13:55:06.026Z,5.45
2023-03-03T14:02:16.423Z,7.00
2023-03-03T14:11:19.032Z,4.93
2023-03-03T14:24:47.556Z,4.30
2023-03-03T14:29:15.769Z,6.10
2023-03-03T14:37:54.586Z,4.23
2023-03-03T14:41:41.988Z,6.45
2023-03-03T14:45:48.811Z,5.18
2023-03-03T14:49:36.849Z,5.60
2023-03-03T14:53:40.766Z,5.25
2023-03-03T15:15:39.000Z,6.65
2023-03-03T15:19:57.813Z,4.30
2023-03-03T15:24:39.312Z,5.25
2023-03-03T15:28:58.583Z,3.97
2023-03-03T17:52:02.528Z,8.52
2023-03-03T17:56:14.351Z,7.43
2023-03-03T18:00:22.473Z,8.30
2023-03-03T18:04:32.386Z,7.53
2023-03-03T18:08:39.085Z,9.10
2023-03-03T18:12:26.897Z,8.77
2023-03-03T18:16:30.800Z,11.10
2023-03-03T18:20:34.684Z,9.10
2023-03-03T18:24:26.112Z,11.20
2023-03-03T18:28:08.344Z,10.67
2023-03-03T18:31:53.678Z,10.00
2023-03-03T18:35:45.886Z,9.43
2023-03-03T18:39:46.527Z,11.68
2023-03-03T18:43:45.253Z,10.17
2023-03-03T18:48:30.131Z,12.50
2023-03-03T18:52:37.348Z,12.13
2023-03-03T18:56:42.733Z,13.90
2023-03-03T19:00:34.873Z,9.70
2023-03-03T19:04:35.029Z,11.07
2023-03-03T19:08:31.858Z,11.83
2023-03-03T19:12:17.002Z,13.35
2023-03-03T19:16:29.226Z,11.07
2023-03-03T19:20:20.332Z,11.50
2023-03-03T19:24:28.808Z,10.63
2023-03-03T19:28:23.896Z,13.38
2023-03-03T19:32:28.590Z,12.48
2023-03-03T19:36:24.771Z,13.40
2023-03-03T19:40:25.330Z,11.40
2023-03-03T19:44:07.626Z,11.13
2023-03-03T19:48:20.878Z,11.60
2023-03-03T19:52:06.253Z,12.60
2023-03-03T19:56:21.670Z,14.45
2023-03-03T20:00:33.087Z,13.27
2023-03-03T20:04:42.371Z,14.87
2023-03-03T20:09:07.965Z,10.95
2023-03-03T20:13:23.654Z,11.27
2023-03-03T20:17:33.537Z,12.60
2023-03-03T20:21:49.534Z,11.75
2023-03-03T20:26:14.865Z,11.43
2023-03-03T20:30:08.846Z,11.50
2023-03-03T20:34:22.087Z,12.15
2023-03-03T20:38:07.544Z,12.25
2023-03-03T20:42:11.566Z,13.88
2023-03-03T20:46:15.372Z,10.50
2023-03-03T20:50:28.159Z,11.90
2023-03-03T20:54:35.212Z,12.23
2023-03-03T20:58:30.159Z,10.73
2023-03-03T21:02:34.243Z,10.98
2023-03-03T21:06:19.966Z,12.38
2023-03-03T21:10:16.738Z,12.93
2023-03-03T21:14:10.411Z,12.48
2023-03-03T21:17:52.918Z,11.88
2023-03-03T21:21:42.632Z,11.68
2023-03-03T21:25:45.981Z,11.67
2023-03-03T21:29:29.550Z,12.10
2023-03-03T21:33:11.915Z,10.07
2023-03-03T21:36:55.587Z,18.07
2023-03-03T21:40:38.081Z,14.68
2023-03-03T21:44:30.641Z,14.93
2023-03-03T21:48:17.763Z,12.53
2023-03-03T21:52:01.091Z,10.07
2023-03-03T21:55:49.982Z,11.80
2023-03-03T21:59:32.176Z,11.95
2023-03-03T22:03:15.722Z,9.67
2023-03-03T22:06:58.626Z,10.82
2023-03-03T22:10:45.466Z,9.25
2023-03-03T22:14:27.802Z,10.77
2023-03-03T22:18:09.970Z,11.10
2023-03-03T22:21:52.408Z,12.85
2023-03-03T22:25:34.500Z,13.33
2023-03-03T22:29:17.537Z,12.63
2023-03-03T22:32:59.633Z,14.13
2023-03-03T22:36:41.659Z,11.52
2023-03-03T22:40:23.845Z,12.37
2023-03-03T22:44:06.115Z,10.57
2023-03-03T22:47:48.136Z,13.40
2023-03-03T22:51:30.112Z,12.63
2023-03-03T22:55:12.248Z,11.98
2023-03-03T22:58:54.303Z,13.30
2023-03-03T23:02:36.277Z,13.20
2023-03-03T23:06:18.379Z,10.75
2023-03-03T23:10:00.384Z,13.27
2023-03-03T23:13:42.639Z,10.38
2023-03-03T23:17:25.050Z,11.10
2023-03-03T23:21:07.015Z,12.68
2023-03-03T23:24:48.974Z,11.05
2023-03-03T23:28:30.981Z,14.37
2023-03-03T23:32:13.232Z,15.07
2023-03-03T23:35:55.355Z,13.32
2023-03-03T23:39:37.355Z,15.87
2023-03-03T23:43:19.347Z,13.27
2023-03-03T23:47:01.494Z,14.32
2023-03-03T23:50:43.454Z,15.10
2023-03-03T23:54:25.785Z,14.00
2023-03-03T23:58:08.188Z,13.55
